Time;durP1;ratioP1;P1;durP2;ratioP2;P2;SDS_P1;SDS_P2;PMS_P1;PMS_P2;Temp;Humidity;BMP_temperature;BMP_pressure;BME280_temperature;BME280_humidity;BME280_pressure;Samples;Min_cycle;Max_cycle;Signal;HPM_P1;HPM_P2
2022/05/21 00:07:05;;;;;;;2.53;2.33;;;27.00;57.30;;;;;;5071543;28;20464;-86
2022/05/21 00:09:31;;;;;;;2.63;2.40;;;27.00;57.40;;;;;;5070112;28;20425;-87
2022/05/21 00:11:57;;;;;;;2.73;2.53;;;27.00;57.40;;;;;;5069213;28;20179;-88
2022/05/21 00:14:23;;;;;;;2.60;2.40;;;27.00;57.40;;;;;;5073642;28;20334;-88
2022/05/21 00:16:51;;;;;;;2.47;2.27;;;27.00;57.40;;;;;;5073407;28;20242;-88
2022/05/21 00:19:22;;;;;;;2.73;2.53;;;27.00;57.40;;;;;;5071288;28;20421;-88
2022/05/21 00:21:51;;;;;;;2.73;2.50;;;27.00;57.30;;;;;;5087436;28;20451;-88
2022/05/21 00:24:16;;;;;;;3.17;2.97;;;27.00;57.30;;;;;;5071006;28;20417;-88
2022/05/21 00:26:42;;;;;;;2.30;2.00;;;27.00;57.30;;;;;;5074344;28;20452;-88
2022/05/21 00:29:10;;;;;;;2.67;2.47;;;27.00;57.30;;;;;;5090818;28;20171;-88
2022/05/21 00:31:38;;;;;;;2.40;2.20;;;27.00;57.30;;;;;;5090918;28;20170;-89
2022/05/21 00:34:04;;;;;;;2.47;2.27;;;27.00;57.30;;;;;;5090758;28;20413;-88
2022/05/21 00:36:33;;;;;;;2.70;2.50;;;27.10;57.40;;;;;;5090395;28;20421;-88
2022/05/21 00:38:59;;;;;;;2.57;2.23;;;27.00;57.90;;;;;;5090452;28;20170;-88
2022/05/21 00:41:28;;;;;;;2.80;2.60;;;27.10;57.40;;;;;;5090042;28;20446;-89
2022/05/21 00:44:02;;;;;;;3.47;2.40;;;27.00;57.30;;;;;;5090228;28;20186;-88
2022/05/21 00:46:36;;;;;;;2.37;2.17;;;27.10;57.40;;;;;;5089999;28;20461;-88
2022/05/21 00:49:33;;;;;;;2.93;2.63;;;27.10;57.40;;;;;;5070168;28;20471;-89
2022/05/21 00:52:11;;;;;;;2.37;1.97;;;27.10;57.40;;;;;;5103491;28;20446;-89
2022/05/21 00:54:43;;;;;;;2.57;2.37;;;27.10;57.40;;;;;;5071304;28;20406;-88
2022/05/21 00:57:22;;;;;;;3.10;2.80;;;27.00;57.30;;;;;;5069853;28;20414;-89
2022/05/21 00:59:52;;;;;;;2.40;2.20;;;27.00;57.30;;;;;;5073221;28;20442;-89
2022/05/21 01:02:27;;;;;;;2.30;2.10;;;27.00;57.30;;;;;;5071519;28;20481;-89
2022/05/21 01:04:56;;;;;;;2.77;2.57;;;27.00;57.30;;;;;;5105488;28;20488;-90
2022/05/21 01:07:25;;;;;;;2.20;2.00;;;27.00;57.30;;;;;;5106289;28;20795;-89
2022/05/21 01:09:56;;;;;;;2.33;2.13;;;27.00;57.30;;;;;;5105130;28;20409;-89
2022/05/21 01:12:28;;;;;;;2.27;2.07;;;27.00;57.40;;;;;;5119466;27;20472;-90
2022/05/21 01:15:05;;;;;;;2.73;2.53;;;27.00;57.30;;;;;;5113040;28;20804;-89
2022/05/21 01:17:32;;;;;;;2.40;2.20;;;27.00;57.30;;;;;;5111864;28;20411;-90
2022/05/21 01:20:00;;;;;;;2.47;2.10;;;27.00;57.30;;;;;;5106829;28;20420;-90
2022/05/21 01:22:44;;;;;;;2.20;2.00;;;27.00;57.30;;;;;;5090265;28;20405;-89
2022/05/21 01:25:12;;;;;;;3.00;2.50;;;27.00;57.30;;;;;;5090667;28;20400;-89
2022/05/21 01:27:39;;;;;;;2.53;2.33;;;27.00;57.30;;;;;;5089960;28;20481;-89
2022/05/21 01:30:10;;;;;;;2.40;2.20;;;27.00;57.30;;;;;;5089798;28;20420;-89
2022/05/21 01:32:38;;;;;;;2.67;2.43;;;27.00;57.30;;;;;;5088610;28;20949;-89
2022/05/21 01:35:09;;;;;;;2.50;2.30;;;27.00;57.30;;;;;;5089336;28;20417;-89
2022/05/21 01:37:36;;;;;;;2.60;2.27;;;27.00;57.30;;;;;;5089425;28;20918;-89
2022/05/21 01:40:02;;;;;;;2.37;2.17;;;27.00;57.30;;;;;;5089228;28;20513;-88
2022/05/21 01:42:28;;;;;;;2.60;2.40;;;27.00;57.30;;;;;;5089688;28;20443;-89
2022/05/21 01:44:57;;;;;;;2.13;1.93;;;27.00;57.30;;;;;;5088451;28;20433;-89
2022/05/21 01:47:23;;;;;;;2.40;2.20;;;27.00;57.30;;;;;;5087870;28;20633;-88
2022/05/21 01:49:51;;;;;;;2.50;2.30;;;27.00;57.30;;;;;;5088171;28;20467;-89
2022/05/21 01:52:17;;;;;;;2.63;2.43;;;27.00;57.30;;;;;;5088453;28;20447;-88
2022/05/21 01:54:43;;;;;;;2.03;1.93;;;27.00;57.30;;;;;;5087934;28;20465;-88
2022/05/21 01:57:12;;;;;;;1.90;1.80;;;27.00;57.30;;;;;;5092389;28;20428;-88
2022/05/21 01:59:38;;;;;;;2.50;2.30;;;27.00;57.30;;;;;;5090952;28;20437;-88
2022/05/21 02:02:07;;;;;;;2.23;2.07;;;27.00;57.30;;;;;;5085081;28;20440;-88
2022/05/21 02:04:33;;;;;;;2.40;2.20;;;27.00;57.30;;;;;;5091993;28;20830;-88
2022/05/21 02:07:00;;;;;;;2.23;2.03;;;27.00;57.30;;;;;;5089798;28;20472;-88
2022/05/21 02:09:26;;;;;;;2.30;2.10;;;27.00;57.30;;;;;;5096014;28;20432;-88
2022/05/21 02:11:55;;;;;;;2.43;2.10;;;27.00;57.30;;;;;;5091592;28;20443;-88
2022/05/21 02:14:21;;;;;;;2.00;1.80;;;27.00;57.90;;;;;;5088944;28;20221;-88
2022/05/21 02:16:49;;;;;;;2.30;2.07;;;27.00;57.30;;;;;;5088374;28;20508;-88
2022/05/21 02:19:15;;;;;;;1.90;1.70;;;27.00;57.30;;;;;;5088688;28;20429;-88
2022/05/21 02:21:41;;;;;;;2.00;1.87;;;27.00;57.30;;;;;;5071751;28;20423;-88
2022/05/21 02:24:08;;;;;;;2.53;2.33;;;27.00;57.40;;;;;;5089663;28;20389;-89
2022/05/21 02:26:39;;;;;;;2.03;1.87;;;27.00;57.40;;;;;;5089265;28;20194;-88
2022/05/21 02:29:07;;;;;;;2.27;2.07;;;27.00;57.30;;;;;;5088625;28;20417;-88
2022/05/21 02:31:33;;;;;;;2.17;2.07;;;27.00;57.40;;;;;;5104746;28;20420;-89
2022/05/21 02:33:59;;;;;;;2.20;2.00;;;27.00;57.30;;;;;;5088905;28;20424;-88
2022/05/21 02:41:53;;;;;;;2.37;2.17;;;27.00;57.40;;;;;;5089905;28;20403;-88
2022/05/21 02:44:23;;;;;;;2.30;2.10;;;27.00;57.40;;;;;;5107169;28;20424;-88
2022/05/21 02:46:53;;;;;;;2.17;1.97;;;27.00;57.40;;;;;;5108907;28;20949;-88
2022/05/21 02:49:22;;;;;;;2.50;2.30;;;27.00;57.40;;;;;;5109297;28;20403;-89
2022/05/21 02:51:48;;;;;;;1.97;1.80;;;27.00;57.40;;;;;;5109894;28;20408;-88
2022/05/21 02:57:36;;;;;;;2.30;2.03;;;27.00;57.40;;;;;;5092079;28;20384;-88
2022/05/21 03:00:09;;;;;;;2.53;2.33;;;27.00;57.40;;;;;;5100102;28;20426;-89
2022/05/21 03:02:35;;;;;;;2.27;2.07;;;27.00;57.40;;;;;;5110745;28;20447;-88
2022/05/21 03:05:03;;;;;;;2.17;1.97;;;27.00;57.40;;;;;;5111682;28;20427;-87
2022/05/21 03:07:32;;;;;;;1.80;1.70;;;27.00;57.40;;;;;;5110538;28;20218;-88
2022/05/21 03:12:42;;;;;;;3.10;1.77;;;27.00;57.40;;;;;;5110678;28;20743;-88
2022/05/21 03:15:08;;;;;;;2.67;2.10;;;27.00;57.40;;;;;;5108789;28;20448;-89
2022/05/21 03:17:34;;;;;;;2.10;1.90;;;27.00;57.40;;;;;;5108811;28;20632;-89
2022/05/21 03:20:00;;;;;;;2.10;1.90;;;27.00;57.40;;;;;;5107507;28;20419;-88
2022/05/21 03:22:26;;;;;;;2.00;1.80;;;27.00;57.40;;;;;;5108964;28;20418;-88
2022/05/21 03:24:54;;;;;;;2.07;1.93;;;27.00;57.40;;;;;;5107393;28;20177;-88
2022/05/21 03:27:20;;;;;;;1.70;1.57;;;27.00;57.40;;;;;;5111195;28;20670;-88
2022/05/21 03:29:46;;;;;;;2.47;2.27;;;27.00;57.40;;;;;;5112916;28;20412;-89
2022/05/21 03:32:11;;;;;;;2.20;2.00;;;27.00;57.40;;;;;;5111937;28;20170;-89
2022/05/21 03:34:37;;;;;;;1.73;1.63;;;27.00;57.30;;;;;;5112299;28;20178;-88
2022/05/21 03:37:04;;;;;;;2.03;1.83;;;27.00;57.30;;;;;;5111598;28;20189;-89
2022/05/21 03:39:30;;;;;;;2.03;1.83;;;27.00;57.30;;;;;;5113163;28;20177;-89
2022/05/21 03:41:56;;;;;;;1.80;1.70;;;27.00;57.20;;;;;;5112484;28;20442;-88
2022/05/21 03:44:22;;;;;;;1.70;1.60;;;26.90;57.20;;;;;;5112690;28;20203;-88
2022/05/21 03:46:48;;;;;;;1.77;1.67;;;26.90;57.20;;;;;;5112075;28;20459;-89
2022/05/21 03:49:14;;;;;;;1.73;1.63;;;26.90;57.20;;;;;;5111867;28;20502;-89
2022/05/21 03:51:40;;;;;;;2.23;1.90;;;26.90;57.20;;;;;;5112692;28;20411;-88
2022/05/21 03:54:07;;;;;;;1.93;1.67;;;26.90;57.20;;;;;;5116058;28;20620;-89
2022/05/21 03:56:33;;;;;;;2.17;1.97;;;26.90;57.20;;;;;;5114342;28;20952;-89
2022/05/21 03:58:59;;;;;;;2.07;1.90;;;26.90;57.20;;;;;;5112370;28;20407;-89
2022/05/21 04:01:25;;;;;;;1.80;1.70;;;26.90;57.20;;;;;;5111401;28;20407;-89
2022/05/21 04:03:54;;;;;;;2.10;1.90;;;26.90;57.20;;;;;;5111029;28;20189;-89
2022/05/21 04:06:21;;;;;;;3.93;2.07;;;26.90;57.20;;;;;;5111555;28;20224;-88
2022/05/21 04:08:47;;;;;;;2.10;1.80;;;26.90;57.20;;;;;;5110232;28;20423;-89
2022/05/21 04:11:13;;;;;;;1.63;1.53;;;26.90;57.30;;;;;;5112689;28;20471;-89
2022/05/21 04:13:39;;;;;;;1.93;1.70;;;26.90;57.20;;;;;;5111204;28;20441;-88
2022/05/21 04:16:05;;;;;;;1.77;1.60;;;26.90;57.30;;;;;;5110916;28;20193;-88
2022/05/21 04:18:30;;;;;;;1.80;1.70;;;26.90;57.30;;;;;;5111287;28;20265;-88
2022/05/21 04:20:56;;;;;;;1.83;1.63;;;26.90;57.30;;;;;;5110134;28;20419;-88
2022/05/21 04:23:22;;;;;;;1.80;1.63;;;26.90;57.30;;;;;;5109633;28;20205;-88
2022/05/21 04:26:03;;;;;;;1.70;1.60;;;26.90;57.30;;;;;;5109632;28;20251;-87
2022/05/21 04:28:30;;;;;;;1.80;1.60;;;26.90;57.30;;;;;;5111266;28;20180;-89
2022/05/21 04:30:56;;;;;;;1.90;1.70;;;26.90;57.30;;;;;;5110671;28;20471;-88
2022/05/21 04:33:23;;;;;;;2.40;2.00;;;26.90;57.40;;;;;;5109759;28;20411;-88
2022/05/21 04:38:34;;;;;;;2.27;2.07;;;26.90;57.40;;;;;;5111078;28;20411;-88
2022/05/21 04:41:01;;;;;;;1.70;1.60;;;26.90;57.40;;;;;;5109424;28;20419;-88
2022/05/21 04:43:27;;;;;;;2.00;1.77;;;26.90;57.40;;;;;;5109948;28;20420;-88
2022/05/21 04:45:55;;;;;;;2.20;1.67;;;26.90;57.40;;;;;;5109117;28;20487;-89
2022/05/21 04:48:21;;;;;;;2.17;1.93;;;26.90;57.30;;;;;;5109884;28;20213;-88
2022/05/21 04:50:53;;;;;;;1.73;1.63;;;26.90;57.30;;;;;;5110675;28;20411;-88
2022/05/21 04:53:19;;;;;;;2.20;1.77;;;27.00;57.40;;;;;;5110335;28;20180;-88
2022/05/21 04:55:45;;;;;;;1.70;1.60;;;27.00;57.40;;;;;;5109886;28;20773;-88
2022/05/21 04:58:10;;;;;;;2.27;2.07;;;27.00;57.40;;;;;;5110422;28;20185;-88
2022/05/21 05:00:38;;;;;;;2.20;2.00;;;27.00;57.40;;;;;;5110352;28;20181;-88
2022/05/21 05:03:10;;;;;;;1.93;1.73;;;27.00;57.40;;;;;;5110548;28;20238;-88
2022/05/21 05:05:41;;;;;;;2.17;1.97;;;27.00;57.30;;;;;;5094257;28;20416;-88
2022/05/21 05:08:07;;;;;;;2.17;1.70;;;27.00;57.30;;;;;;5110084;28;20519;-89
2022/05/21 05:10:36;;;;;;;1.70;1.60;;;27.00;57.40;;;;;;5111378;28;20412;-88
2022/05/21 05:13:02;;;;;;;2.03;1.83;;;27.00;57.30;;;;;;5109519;28;20430;-89
2022/05/21 05:15:29;;;;;;;2.10;1.90;;;27.00;57.30;;;;;;5109458;28;20435;-89
2022/05/21 05:21:16;;;;;;;1.70;1.60;;;27.00;57.30;;;;;;5109469;28;20397;-88
2022/05/21 05:23:42;;;;;;;1.93;1.80;;;27.00;57.40;;;;;;5109009;28;20439;-89
2022/05/21 05:26:08;;;;;;;2.13;1.93;;;27.00;57.40;;;;;;5107807;28;20173;-86
2022/05/21 05:28:34;;;;;;;1.90;1.80;;;27.00;57.40;;;;;;5109103;28;20170;-88
2022/05/21 05:31:00;;;;;;;2.17;1.80;;;27.00;57.40;;;;;;5108897;28;20642;-88
2022/05/21 05:33:28;;;;;;;1.70;1.60;;;27.00;57.40;;;;;;5091871;28;20182;-89
2022/05/21 05:35:54;;;;;;;2.50;1.70;;;27.00;57.40;;;;;;5108239;28;20408;-88
2022/05/21 05:38:22;;;;;;;2.10;1.90;;;27.00;57.40;;;;;;5108894;28;20419;-88
2022/05/21 05:40:50;;;;;;;2.23;1.97;;;27.00;57.40;;;;;;5109811;28;20174;-88
2022/05/21 05:43:18;;;;;;;2.20;2.00;;;27.00;57.40;;;;;;5109987;28;20467;-88
2022/05/21 05:45:44;;;;;;;1.70;1.60;;;27.00;57.40;;;;;;5109420;28;20420;-88
2022/05/21 05:48:10;;;;;;;1.80;1.70;;;27.00;57.40;;;;;;5108166;28;20459;-88
2022/05/21 05:50:37;;;;;;;1.57;1.47;;;27.00;57.40;;;;;;5091980;28;20905;-88
2022/05/21 05:53:05;;;;;;;1.80;1.60;;;27.00;57.40;;;;;;5108398;28;20506;-88
2022/05/21 05:55:32;;;;;;;2.03;1.80;;;27.00;57.40;;;;;;5109333;28;20400;-88
2022/05/21 05:57:59;;;;;;;1.70;1.60;;;27.00;57.40;;;;;;5108479;28;20404;-88
2022/05/21 06:00:25;;;;;;;2.10;1.70;;;27.00;57.40;;;;;;5107930;28;20418;-89
2022/05/21 06:03:01;;;;;;;1.87;1.70;;;27.00;57.40;;;;;;5108022;28;20431;-88
2022/05/21 06:05:30;;;;;;;1.60;1.50;;;27.00;57.40;;;;;;5106502;28;20434;-88
2022/05/21 06:07:59;;;;;;;2.30;2.10;;;27.00;57.40;;;;;;5106515;28;20456;-89
2022/05/21 06:10:30;;;;;;;2.00;1.73;;;27.00;57.40;;;;;;5107157;28;20431;-88
2022/05/21 06:12:57;;;;;;;1.60;1.50;;;27.00;57.40;;;;;;5107825;28;20477;-88
2022/05/21 06:15:24;;;;;;;2.17;1.97;;;27.00;57.40;;;;;;5107636;28;20459;-89
2022/05/21 06:17:50;;;;;;;2.40;1.77;;;27.00;57.90;;;;;;5108012;28;20472;-88
2022/05/21 06:20:17;;;;;;;1.77;1.63;;;27.00;57.40;;;;;;5106328;28;20419;-88
2022/05/21 06:22:47;;;;;;;1.50;1.40;;;27.00;57.30;;;;;;5088301;28;20416;-88
2022/05/21 06:25:17;;;;;;;1.53;1.43;;;27.00;57.30;;;;;;5107183;28;20761;-89
2022/05/21 06:27:49;;;;;;;2.10;1.60;;;27.00;57.30;;;;;;5099805;28;20456;-88
2022/05/21 06:30:16;;;;;;;2.00;1.80;;;27.10;57.40;;;;;;5085724;28;20782;-88
2022/05/21 06:32:42;;;;;;;1.70;1.60;;;27.00;57.30;;;;;;5085821;28;20408;-88
2022/05/21 06:35:09;;;;;;;2.03;1.70;;;27.00;57.30;;;;;;5069560;28;20421;-88
2022/05/21 06:37:36;;;;;;;4.23;2.10;;;27.00;57.30;;;;;;5086782;28;20174;-88
2022/05/21 06:40:03;;;;;;;1.93;1.73;;;27.00;57.30;;;;;;5085845;28;20431;-87
2022/05/21 06:42:29;;;;;;;2.50;1.83;;;27.00;57.30;;;;;;5085664;28;20420;-88
2022/05/21 06:44:55;;;;;;;2.00;1.77;;;27.10;57.40;;;;;;5086034;28;20416;-88
2022/05/21 06:47:21;;;;;;;1.63;1.53;;;27.10;57.40;;;;;;5085570;28;20832;-88
2022/05/21 06:49:47;;;;;;;2.03;1.83;;;27.00;57.30;;;;;;5085846;28;20194;-88
2022/05/21 06:52:12;;;;;;;1.60;1.50;;;27.00;57.30;;;;;;5086693;28;20470;-88
2022/05/21 06:54:38;;;;;;;4.37;1.80;;;27.00;57.30;;;;;;5085837;28;20174;-87
2022/05/21 06:57:13;;;;;;;3.40;1.77;;;27.10;57.50;;;;;;5085979;28;20186;-88
2022/05/21 06:59:39;;;;;;;1.90;1.70;;;27.00;57.30;;;;;;5088989;28;20391;-88
2022/05/21 07:02:05;;;;;;;2.27;1.80;;;27.00;57.30;;;;;;5094002;28;20408;-88
2022/05/21 07:10:09;;;;;;;1.83;1.50;;;27.00;57.30;;;;;;5093291;28;20802;-88
2022/05/21 07:12:36;;;;;;;1.70;1.60;;;27.00;57.30;;;;;;5093082;28;20399;-87
2022/05/21 07:15:05;;;;;;;2.67;1.83;;;27.00;57.30;;;;;;5092126;28;20466;-87
2022/05/21 07:17:30;;;;;;;1.90;1.70;;;27.00;57.20;;;;;;5093579;28;20504;-87
2022/05/21 07:19:57;;;;;;;1.53;1.33;;;27.00;57.20;;;;;;5092992;28;20812;-88
2022/05/21 07:22:23;;;;;;;2.87;2.10;;;27.00;57.10;;;;;;5092254;28;20181;-89
2022/05/21 07:24:49;;;;;;;2.23;1.70;;;27.00;57.10;;;;;;5091692;28;20434;-89
2022/05/21 07:27:17;;;;;;;1.67;1.57;;;27.00;57.20;;;;;;5093946;28;20209;-88
2022/05/21 07:29:44;;;;;;;2.40;1.40;;;27.00;57.20;;;;;;5094853;28;20411;-88
2022/05/21 07:32:19;;;;;;;1.77;1.43;;;27.00;57.20;;;;;;5095806;28;20472;-88
2022/05/21 07:34:45;;;;;;;1.80;1.70;;;27.00;57.10;;;;;;5095385;28;20416;-89
2022/05/21 07:37:12;;;;;;;3.40;1.80;;;27.00;57.10;;;;;;5096113;28;20419;-89
2022/05/21 07:39:38;;;;;;;4.63;1.73;;;27.00;57.00;;;;;;5096813;28;20419;-89
2022/05/21 07:42:05;;;;;;;1.90;1.80;;;27.00;56.90;;;;;;5096915;28;20407;-88
2022/05/21 07:44:31;;;;;;;2.53;1.63;;;27.00;56.80;;;;;;5094882;28;20404;-88
2022/05/21 07:46:56;;;;;;;1.83;1.43;;;27.00;56.80;;;;;;5095019;28;20821;-88
2022/05/21 07:49:23;;;;;;;3.60;1.87;;;27.00;56.60;;;;;;5092454;28;20176;-86
2022/05/21 07:51:49;;;;;;;3.37;1.27;;;26.90;56.40;;;;;;5091758;28;20178;-87
2022/05/21 07:54:15;;;;;;;2.77;2.00;;;26.90;56.30;;;;;;5093553;28;20416;-88
2022/05/21 07:56:41;;;;;;;2.03;1.60;;;26.90;56.10;;;;;;5093586;28;20424;-87
2022/05/21 08:02:29;;;;;;;2.70;1.57;;;26.90;56.10;;;;;;5091342;28;20157;-87
2022/05/21 08:04:55;;;;;;;1.57;1.47;;;26.90;56.10;;;;;;5091705;28;20856;-87
2022/05/21 08:07:21;;;;;;;1.77;1.20;;;26.90;56.00;;;;;;5090740;28;20206;-86
2022/05/21 08:09:48;;;;;;;1.53;1.43;;;26.90;56.10;;;;;;5091775;28;20166;-87
2022/05/21 08:12:14;;;;;;;3.37;1.80;;;26.90;56.10;;;;;;5087915;28;20401;-88
2022/05/21 08:14:41;;;;;;;2.67;2.23;;;26.90;56.00;;;;;;5086684;28;20423;-88
2022/05/21 08:17:08;;;;;;;1.43;1.30;;;26.90;56.00;;;;;;5087563;28;20435;-88
2022/05/21 08:19:35;;;;;;;1.57;1.47;;;26.90;56.00;;;;;;5087125;28;20423;-88
2022/05/21 08:26:56;;;;;;;1.43;1.27;;;26.90;56.00;;;;;;5088176;28;20974;-88
2022/05/21 08:27:30;;;;;;;1.90;1.40;;;26.90;56.00;;;;;;5088764;28;20503;-88
2022/05/21 08:29:56;;;;;;;2.03;1.40;;;26.80;55.90;;;;;;5088935;28;20393;-88
2022/05/21 08:32:25;;;;;;;1.40;1.20;;;26.80;55.90;;;;;;5087430;28;20459;-87
2022/05/21 08:34:52;;;;;;;1.60;1.50;;;26.80;55.90;;;;;;5087306;28;20243;-88
2022/05/21 08:37:20;;;;;;;2.53;2.33;;;26.80;56.00;;;;;;5087287;28;20416;-87
2022/05/21 08:39:46;;;;;;;1.90;1.70;;;26.80;55.90;;;;;;5086802;28;20415;-88
2022/05/21 08:42:21;;;;;;;1.30;1.20;;;26.80;55.90;;;;;;5087790;28;20472;-88
2022/05/21 08:44:52;;;;;;;2.10;1.67;;;26.90;56.00;;;;;;5087329;28;20404;-87
2022/05/21 08:47:30;;;;;;;1.90;1.70;;;26.80;55.90;;;;;;5087539;28;20452;-87
2022/05/21 08:50:04;;;;;;;1.43;1.33;;;26.80;55.90;;;;;;5086842;28;20914;-87
2022/05/21 08:53:09;;;;;;;2.63;1.40;;;26.80;56.10;;;;;;5087827;28;20420;-88
2022/05/21 08:55:39;;;;;;;2.60;1.47;;;26.80;56.10;;;;;;5086892;28;20415;-87
2022/05/21 08:58:46;;;;;;;2.80;1.37;;;26.80;56.10;;;;;;5086615;28;20780;-88
2022/05/21 09:01:15;;;;;;;2.13;1.30;;;26.80;56.20;;;;;;5049393;28;20414;-87
2022/05/21 09:03:42;;;;;;;2.00;1.20;;;26.80;56.20;;;;;;5081867;28;20452;-87
2022/05/21 09:06:31;;;;;;;1.80;1.50;;;26.80;56.20;;;;;;5088162;28;20409;-87
2022/05/21 09:09:10;;;;;;;2.33;1.23;;;26.80;56.20;;;;;;5087372;28;20416;-88
2022/05/21 09:11:58;;;;;;;4.33;1.80;;;26.80;56.20;;;;;;5088317;28;20384;-88
2022/05/21 09:14:24;;;;;;;1.67;1.43;;;26.80;56.20;;;;;;5088261;28;20488;-88
2022/05/21 09:16:56;;;;;;;1.30;1.20;;;26.80;56.10;;;;;;5087387;28;20443;-88
2022/05/21 09:19:28;;;;;;;1.40;1.30;;;26.80;56.10;;;;;;5087699;28;20174;-88
2022/05/21 09:22:00;;;;;;;1.40;1.17;;;26.80;56.10;;;;;;5086672;28;20420;-88
2022/05/21 09:24:54;;;;;;;1.43;1.33;;;26.80;56.10;;;;;;5085723;28;20409;-89
2022/05/21 09:27:32;;;;;;;1.50;1.40;;;26.80;56.10;;;;;;5084714;28;20855;-87
2022/05/21 09:30:33;;;;;;;1.53;1.40;;;26.80;56.10;;;;;;5087035;28;20930;-88
2022/05/21 09:33:21;;;;;;;1.40;1.27;;;26.80;56.70;;;;;;5090631;28;20401;-87
2022/05/21 09:35:54;;;;;;;1.80;1.37;;;26.80;56.10;;;;;;5091632;28;20392;-87
2022/05/21 09:38:30;;;;;;;2.70;1.60;;;26.80;56.10;;;;;;5094893;28;20421;-87
2022/05/21 09:41:15;;;;;;;1.30;1.20;;;26.80;56.10;;;;;;5095301;28;20415;-87
2022/05/21 09:46:39;;;;;;;1.40;1.30;;;26.80;56.10;;;;;;5091232;28;20475;-87
2022/05/21 09:49:34;;;;;;;1.50;1.40;;;26.80;56.10;;;;;;5093670;28;20432;-88
2022/05/21 09:52:06;;;;;;;1.43;1.30;;;26.80;56.10;;;;;;5091560;28;20427;-87
2022/05/21 09:54:38;;;;;;;1.57;1.33;;;26.80;56.10;;;;;;5076398;28;20423;-88
2022/05/21 09:57:07;;;;;;;1.20;1.10;;;26.80;56.10;;;;;;5088439;28;20428;-87
2022/05/21 09:59:40;;;;;;;1.50;1.30;;;26.80;56.10;;;;;;5085098;28;20400;-88
2022/05/21 10:02:44;;;;;;;1.30;1.20;;;26.80;56.10;;;;;;5089990;28;20481;-87
2022/05/21 10:05:18;;;;;;;2.27;1.30;;;26.80;56.10;;;;;;5083000;28;20424;-88
2022/05/21 10:11:07;;;;;;;1.90;1.70;;;26.80;56.00;;;;;;5050012;28;20417;-87
2022/05/21 10:13:51;;;;;;;2.30;1.50;;;26.80;56.00;;;;;;5080171;28;20961;-87
2022/05/21 10:16:53;;;;;;;1.50;1.37;;;26.80;56.00;;;;;;5091618;28;20437;-87
2022/05/21 10:19:40;;;;;;;1.67;1.47;;;26.80;56.00;;;;;;5084103;28;20484;-87
2022/05/21 10:22:39;;;;;;;1.50;1.40;;;26.80;56.00;;;;;;5098598;28;20412;-87
2022/05/21 10:25:09;;;;;;;1.50;1.30;;;26.80;56.00;;;;;;5086160;28;20469;-87
2022/05/21 10:27:57;;;;;;;1.20;1.03;;;26.80;56.00;;;;;;5105483;28;20462;-87
2022/05/21 10:30:44;;;;;;;1.60;1.40;;;26.80;56.00;;;;;;5084644;28;20448;-86
2022/05/21 10:33:50;;;;;;;1.53;0.93;;;26.80;55.90;;;;;;5090878;28;20416;-88
2022/05/21 10:37:09;;;;;;;4.00;1.20;;;26.80;55.90;;;;;;5066373;28;20418;-87
2022/05/21 10:40:14;;;;;;;1.40;1.30;;;26.80;55.90;;;;;;4994441;28;20428;-88
2022/05/21 10:43:00;;;;;;;3.43;1.30;;;26.70;55.90;;;;;;5009473;28;21045;-89
2022/05/21 10:45:36;;;;;;;1.53;1.43;;;26.70;55.90;;;;;;4998072;28;20429;-88
2022/05/21 10:48:27;;;;;;;1.33;1.23;;;26.80;55.90;;;;;;4992574;28;20594;-88
2022/05/21 10:51:30;;;;;;;1.83;1.43;;;26.80;55.80;;;;;;4993646;28;20435;-87
2022/05/21 10:54:33;;;;;;;1.50;1.40;;;26.80;55.80;;;;;;4990560;28;20448;-88
2022/05/21 10:57:21;;;;;;;1.53;1.20;;;26.80;55.80;;;;;;5009369;28;20422;-88
2022/05/21 11:00:11;;;;;;;1.50;1.00;;;26.80;55.90;;;;;;5009985;28;20969;-88
2022/05/21 11:02:56;;;;;;;1.73;1.10;;;26.80;55.80;;;;;;4992199;28;20514;-87
2022/05/21 11:05:31;;;;;;;1.60;1.30;;;26.80;55.90;;;;;;4992013;28;20447;-87
2022/05/21 11:08:09;;;;;;;1.70;1.20;;;26.80;55.90;;;;;;5002875;28;20471;-88
2022/05/21 11:10:51;;;;;;;1.50;1.30;;;26.80;55.80;;;;;;4987386;28;20430;-88
2022/05/21 11:13:55;;;;;;;1.83;1.40;;;26.80;55.80;;;;;;5006281;28;20488;-87
2022/05/21 11:16:41;;;;;;;1.63;1.40;;;26.80;55.80;;;;;;5076616;28;20444;-88
2022/05/21 11:19:29;;;;;;;1.93;1.33;;;26.80;55.80;;;;;;5087999;28;21066;-87
2022/05/21 11:39:30;;;;;;;1.53;1.20;;;26.70;55.50;;;;;;4938785;29;20447;-86
2022/05/21 11:52:58;;;;;;;2.00;1.60;;;26.70;55.60;;;;;;4935976;29;20394;-86
2022/05/21 11:55:30;;;;;;;1.57;1.30;;;26.70;55.60;;;;;;4917944;29;20435;-87
2022/05/21 11:58:01;;;;;;;1.47;1.30;;;26.70;55.60;;;;;;4917398;29;20440;-86
2022/05/21 12:00:27;;;;;;;2.10;1.40;;;26.70;55.60;;;;;;4935165;29;20429;-87
2022/05/21 12:03:13;;;;;;;4.40;1.30;;;26.70;55.50;;;;;;4959803;28;20601;-87
2022/05/21 12:06:13;;;;;;;2.37;1.43;;;26.70;55.50;;;;;;4969366;28;20287;-86
2022/05/21 12:08:46;;;;;;;2.30;1.27;;;26.70;55.50;;;;;;4955134;29;20438;-87
2022/05/21 12:11:41;;;;;;;1.80;1.40;;;26.70;55.50;;;;;;4949173;28;20433;-88
2022/05/21 12:14:36;;;;;;;3.90;1.37;;;26.70;55.50;;;;;;4950971;28;20441;-85
2022/05/21 12:17:24;;;;;;;2.17;1.50;;;26.70;55.50;;;;;;5017953;28;20484;-86
2022/05/21 12:19:50;;;;;;;1.23;1.00;;;26.70;55.50;;;;;;5043510;28;20492;-86
2022/05/21 12:22:44;;;;;;;1.40;1.13;;;26.70;55.60;;;;;;5027326;28;20411;-86
2022/05/21 12:25:42;;;;;;;1.43;1.33;;;26.70;55.60;;;;;;5033302;28;20191;-88
2022/05/21 12:28:09;;;;;;;1.60;1.43;;;26.70;55.60;;;;;;5042415;28;20465;-87
2022/05/21 12:30:36;;;;;;;1.20;1.10;;;26.70;55.60;;;;;;5046282;28;20430;-86
2022/05/21 12:33:02;;;;;;;1.70;1.37;;;26.70;55.60;;;;;;5039961;28;20517;-87
2022/05/21 12:38:52;;;;;;;1.23;0.90;;;26.70;55.60;;;;;;5048110;28;20437;-87
2022/05/21 12:41:27;;;;;;;2.00;1.33;;;26.70;55.70;;;;;;5030876;28;20426;-86
2022/05/21 12:43:54;;;;;;;1.90;1.80;;;26.70;55.70;;;;;;5049065;28;20410;-88
2022/05/21 12:46:27;;;;;;;1.40;1.20;;;26.70;55.60;;;;;;5051770;28;20445;-87
2022/05/21 12:55:40;;;;;;;1.40;1.17;;;26.70;55.70;;;;;;5058086;28;20398;-87
2022/05/21 12:58:12;;;;;;;1.60;1.10;;;26.70;56.00;;;;;;5047034;28;20465;-87
2022/05/21 13:00:49;;;;;;;2.80;1.40;;;26.70;55.10;;;;;;5048658;28;20186;-87
2022/05/21 13:03:16;;;;;;;4.63;1.43;;;26.70;55.00;;;;;;5065190;28;20413;-87
2022/05/21 13:05:58;;;;;;;2.07;1.40;;;26.70;54.80;;;;;;5071560;28;20421;-87
2022/05/21 13:08:25;;;;;;;1.90;1.70;;;26.70;54.70;;;;;;5049157;28;20457;-87
2022/05/21 13:11:02;;;;;;;1.47;1.00;;;26.70;54.50;;;;;;5071286;28;20435;-89
2022/05/21 13:13:34;;;;;;;2.90;1.60;;;26.70;54.30;;;;;;5073273;28;20421;-90
2022/05/21 13:16:05;;;;;;;4.70;1.10;;;26.70;54.70;;;;;;5052870;28;20448;-90
2022/05/21 13:18:45;;;;;;;2.83;1.50;;;26.70;54.10;;;;;;5064897;28;20435;-89
2022/05/21 13:21:22;;;;;;;1.90;1.30;;;26.70;54.00;;;;;;5084572;28;20841;-90
2022/05/21 13:24:06;;;;;;;2.13;1.27;;;26.70;53.90;;;;;;5054842;28;20454;-89
2022/05/21 13:26:34;;;;;;;2.53;1.30;;;26.70;53.80;;;;;;5087854;28;20745;-90
2022/05/21 13:29:21;;;;;;;2.43;1.23;;;26.60;53.80;;;;;;5081119;28;20424;-90
2022/05/21 13:31:51;;;;;;;3.30;2.33;;;26.70;53.80;;;;;;5079608;28;20417;-90
2022/05/21 13:34:36;;;;;;;3.43;1.23;;;26.60;53.70;;;;;;5079259;28;20504;-90
2022/05/21 13:37:03;;;;;;;1.50;1.10;;;26.60;53.60;;;;;;5081815;28;20516;-89
2022/05/21 13:39:32;;;;;;;3.93;1.43;;;26.60;53.60;;;;;;5088743;28;20431;-89
2022/05/21 13:42:21;;;;;;;3.10;1.43;;;26.60;53.50;;;;;;5088390;28;20791;-90
2022/05/21 13:44:49;;;;;;;2.07;1.30;;;26.60;53.40;;;;;;5079010;28;20416;-89
2022/05/21 13:47:28;;;;;;;1.40;1.23;;;26.60;53.30;;;;;;5080621;28;20467;-89
2022/05/21 13:49:55;;;;;;;2.50;1.13;;;26.60;53.40;;;;;;5080598;28;20421;-90
2022/05/21 13:52:24;;;;;;;1.43;1.10;;;26.60;53.30;;;;;;5087496;28;20455;-89
2022/05/21 13:54:50;;;;;;;1.60;1.20;;;26.60;53.20;;;;;;5079229;28;20433;-90
2022/05/21 13:57:26;;;;;;;2.50;1.27;;;26.60;53.10;;;;;;5087451;28;20489;-90
2022/05/21 13:59:57;;;;;;;1.60;1.20;;;26.60;53.00;;;;;;5078801;28;20436;-89
2022/05/21 14:02:43;;;;;;;1.20;1.10;;;26.60;53.00;;;;;;5084345;28;20440;-89
2022/05/21 14:05:27;;;;;;;1.13;1.03;;;26.60;52.90;;;;;;5082203;28;20509;-89
2022/05/21 14:08:06;;;;;;;2.47;1.23;;;26.60;53.00;;;;;;5079882;28;20463;-89
2022/05/21 14:10:44;;;;;;;1.97;1.27;;;26.60;52.90;;;;;;5086107;28;20420;-90
2022/05/21 14:13:31;;;;;;;1.47;1.17;;;26.60;52.80;;;;;;5086348;28;20428;-89
2022/05/21 14:16:00;;;;;;;1.90;1.20;;;26.60;52.80;;;;;;5077580;28;20452;-89
2022/05/21 14:18:33;;;;;;;1.77;1.40;;;26.50;52.60;;;;;;5080777;28;20452;-89
2022/05/21 14:21:06;;;;;;;1.20;1.00;;;26.50;52.60;;;;;;5088137;28;20477;-89
2022/05/21 14:23:38;;;;;;;3.00;1.00;;;26.50;52.60;;;;;;5088313;28;20797;-90
2022/05/21 14:26:26;;;;;;;2.63;1.10;;;26.50;52.60;;;;;;5086863;28;20420;-90
2022/05/21 14:29:00;;;;;;;2.50;2.13;;;26.50;52.50;;;;;;5083100;28;20439;-90
2022/05/21 14:31:36;;;;;;;2.17;1.30;;;26.50;52.50;;;;;;5084776;28;20494;-90
2022/05/21 14:34:13;;;;;;;2.17;1.40;;;26.50;52.50;;;;;;5086240;28;20404;-89